Time;durP1;ratioP1;P1;durP2;ratioP2;P2;SDS_P1;SDS_P2;PMS_P1;PMS_P2;Temp;Humidity;BMP_temperature;BMP_pressure;BME280_temperature;BME280_humidity;BME280_pressure;Samples;Min_cycle;Max_cycle;Signal;HPM_P1;HPM_P2
2021/05/31 00:01:42;;;;;;;5.30;3.20;;;19.20;38.20;;;;;;4986619;28;20199;-44
2021/05/31 00:04:07;;;;;;;2.60;2.40;;;19.20;38.10;;;;;;4985806;28;20248;-50
2021/05/31 00:06:41;;;;;;;3.03;2.83;;;19.20;37.80;;;;;;4984804;28;20203;-45
2021/05/31 00:09:08;;;;;;;3.20;2.90;;;19.20;37.60;;;;;;4979850;28;20289;-45
2021/05/31 00:11:34;;;;;;;2.80;2.60;;;19.10;37.60;;;;;;4984106;28;20497;-46
2021/05/31 00:14:00;;;;;;;3.63;2.70;;;19.10;37.20;;;;;;4982582;28;20456;-45
2021/05/31 00:16:25;;;;;;;3.23;2.93;;;19.10;36.70;;;;;;4982850;28;20464;-47
2021/05/31 00:18:51;;;;;;;3.37;2.93;;;19.00;37.00;;;;;;4980212;28;20301;-45
2021/05/31 00:21:18;;;;;;;3.70;2.53;;;19.00;37.10;;;;;;4978059;28;22109;-48
2021/05/31 00:23:45;;;;;;;3.20;2.90;;;18.90;37.30;;;;;;4984369;28;20207;-45
2021/05/31 00:26:15;;;;;;;3.20;2.80;;;18.80;37.40;;;;;;4983393;28;20450;-49
2021/05/31 00:28:41;;;;;;;2.93;2.73;;;18.80;37.60;;;;;;4984560;28;20837;-45
2021/05/31 00:31:06;;;;;;;3.67;2.70;;;18.70;37.80;;;;;;4986172;28;20496;-47
2021/05/31 00:33:32;;;;;;;3.80;2.70;;;18.70;37.80;;;;;;4983603;28;20203;-45
2021/05/31 00:35:57;;;;;;;3.30;3.00;;;18.70;37.70;;;;;;4982702;28;20202;-49
2021/05/31 00:38:23;;;;;;;3.50;3.10;;;18.80;37.50;;;;;;4981392;28;20262;-46
2021/05/31 00:40:49;;;;;;;3.27;2.73;;;18.80;37.20;;;;;;4990940;28;20214;-47
2021/05/31 00:43:14;;;;;;;2.53;2.33;;;18.80;37.20;;;;;;4985870;28;20199;-46
2021/05/31 00:45:40;;;;;;;2.57;2.37;;;18.80;37.30;;;;;;4990856;28;20198;-48
2021/05/31 00:48:05;;;;;;;3.47;3.17;;;18.80;37.10;;;;;;4985721;28;20195;-49
2021/05/31 00:50:31;;;;;;;3.20;3.00;;;18.80;36.60;;;;;;4988735;28;20230;-46
2021/05/31 00:52:57;;;;;;;5.40;2.70;;;18.80;36.80;;;;;;4986793;28;20195;-48
2021/05/31 00:55:22;;;;;;;3.37;2.80;;;18.80;36.70;;;;;;4981122;28;20576;-45
2021/05/31 00:57:48;;;;;;;4.30;2.37;;;18.70;37.20;;;;;;4981491;28;20194;-46
2021/05/31 01:00:14;;;;;;;3.20;2.70;;;18.70;37.20;;;;;;4981563;28;20277;-46
2021/05/31 01:02:40;;;;;;;2.60;2.27;;;18.60;37.20;;;;;;4980450;28;20226;-46
2021/05/31 01:05:07;;;;;;;3.20;2.60;;;18.60;37.30;;;;;;4978180;28;20551;-44
2021/05/31 01:07:36;;;;;;;3.17;2.87;;;18.60;37.40;;;;;;4983311;28;21026;-48
2021/05/31 01:10:07;;;;;;;5.10;3.10;;;18.60;37.50;;;;;;4981775;28;20465;-46
2021/05/31 01:12:56;;;;;;;4.17;2.60;;;18.60;37.50;;;;;;4976179;28;20450;-49
2021/05/31 01:15:24;;;;;;;3.53;2.80;;;18.50;37.80;;;;;;4974180;28;20583;-47
2021/05/31 01:17:58;;;;;;;2.67;2.30;;;18.50;37.90;;;;;;4989031;28;20533;-44
2021/05/31 01:20:47;;;;;;;6.17;2.60;;;18.40;37.80;;;;;;4984255;28;20455;-45
2021/05/31 01:23:16;;;;;;;2.60;2.40;;;18.40;37.90;;;;;;4986107;28;21016;-45
2021/05/31 01:26:17;;;;;;;2.60;2.40;;;18.20;38.40;;;;;;4985189;28;20449;-45
2021/05/31 01:29:06;;;;;;;3.07;2.60;;;18.20;38.50;;;;;;4983730;28;20504;-46
2021/05/31 01:31:58;;;;;;;2.60;2.40;;;17.90;38.60;;;;;;4989835;28;20491;-45
2021/05/31 01:34:29;;;;;;;3.93;2.50;;;17.80;39.20;;;;;;4987729;28;20454;-44
2021/05/31 01:37:02;;;;;;;3.10;2.80;;;17.50;39.20;;;;;;4981039;28;20532;-45
2021/05/31 01:39:32;;;;;;;2.87;2.50;;;17.50;39.30;;;;;;4980990;28;20512;-46
2021/05/31 01:41:59;;;;;;;3.73;2.53;;;17.50;39.00;;;;;;4979572;28;20488;-47
2021/05/31 01:44:26;;;;;;;2.70;2.00;;;17.40;39.10;;;;;;4979081;28;20817;-46
2021/05/31 01:46:52;;;;;;;3.13;2.70;;;17.50;39.40;;;;;;4977161;28;20565;-45
2021/05/31 01:49:20;;;;;;;2.73;2.13;;;17.60;39.00;;;;;;4984425;28;20837;-45
2021/05/31 01:51:47;;;;;;;3.20;2.50;;;17.70;38.80;;;;;;4982217;28;20520;-47
2021/05/31 01:54:14;;;;;;;2.83;2.60;;;17.70;38.80;;;;;;4984411;28;20445;-45
2021/05/31 01:56:42;;;;;;;2.50;2.30;;;17.70;38.60;;;;;;4984086;28;21822;-45
2021/05/31 01:59:08;;;;;;;4.00;2.47;;;17.70;39.10;;;;;;4985080;28;20477;-45
2021/05/31 02:01:35;;;;;;;3.13;2.27;;;17.50;38.60;;;;;;4991537;28;20470;-46
2021/05/31 02:04:01;;;;;;;3.57;2.57;;;17.20;39.20;;;;;;4984393;28;20441;-44
2021/05/31 02:06:27;;;;;;;2.80;2.60;;;17.00;39.80;;;;;;4990946;28;20437;-44
2021/05/31 02:08:53;;;;;;;4.07;2.40;;;17.00;39.50;;;;;;4985250;28;20453;-48
2021/05/31 02:11:35;;;;;;;2.40;2.20;;;16.90;39.60;;;;;;4988892;28;20861;-48
2021/05/31 02:14:06;;;;;;;2.60;2.00;;;16.80;40.00;;;;;;4984550;28;20261;-49
2021/05/31 02:16:40;;;;;;;2.17;1.97;;;17.00;39.80;;;;;;4989998;28;20476;-45
2021/05/31 02:19:09;;;;;;;2.50;2.30;;;16.80;39.40;;;;;;4987173;28;20441;-44
2021/05/31 02:21:38;;;;;;;4.13;2.00;;;16.60;39.80;;;;;;4975159;28;20453;-47
2021/05/31 02:24:05;;;;;;;2.90;2.23;;;16.50;40.40;;;;;;4975241;28;20867;-45
2021/05/31 02:26:32;;;;;;;4.73;2.60;;;16.60;40.40;;;;;;4983546;28;20450;-47
2021/05/31 02:28:58;;;;;;;3.30;2.07;;;16.70;40.10;;;;;;4980864;28;20511;-45
2021/05/31 02:31:24;;;;;;;4.23;2.63;;;16.50;41.00;;;;;;4980461;28;20493;-46
2021/05/31 02:33:49;;;;;;;3.20;2.40;;;16.50;40.50;;;;;;4976651;28;20241;-45
2021/05/31 02:36:16;;;;;;;2.00;1.80;;;16.60;40.20;;;;;;4977996;28;20226;-45
2021/05/31 02:38:42;;;;;;;3.20;2.73;;;16.30;40.50;;;;;;4977395;28;20253;-46
2021/05/31 02:41:08;;;;;;;5.80;2.20;;;16.00;41.00;;;;;;4981753;28;20811;-44
2021/05/31 02:43:34;;;;;;;2.30;2.10;;;15.60;42.00;;;;;;4977554;28;20203;-46
2021/05/31 02:46:01;;;;;;;4.57;2.73;;;15.80;42.10;;;;;;4980739;28;20433;-45
2021/05/31 02:48:27;;;;;;;3.20;2.17;;;15.80;42.10;;;;;;4977538;28;20365;-45
2021/05/31 02:50:56;;;;;;;3.53;2.63;;;16.00;41.90;;;;;;4974696;28;20494;-46
2021/05/31 02:53:22;;;;;;;3.67;2.70;;;15.90;41.80;;;;;;4982541;28;20571;-44
2021/05/31 02:55:48;;;;;;;2.63;2.43;;;15.80;41.60;;;;;;4984173;28;20810;-47
2021/05/31 02:58:14;;;;;;;3.00;2.30;;;15.60;42.40;;;;;;4981294;28;20459;-44
2021/05/31 03:00:39;;;;;;;2.93;2.20;;;15.50;42.70;;;;;;4984025;28;20283;-45
2021/05/31 03:03:05;;;;;;;3.03;2.70;;;15.50;43.10;;;;;;4980904;28;20704;-45
2021/05/31 03:05:32;;;;;;;3.87;2.33;;;15.70;43.00;;;;;;4985657;28;20201;-44
2021/05/31 03:07:59;;;;;;;2.10;1.90;;;15.30;43.10;;;;;;4983863;28;20257;-45
2021/05/31 03:10:26;;;;;;;2.40;2.20;;;15.20;43.70;;;;;;4987153;28;20569;-45
2021/05/31 03:12:52;;;;;;;2.90;2.60;;;15.40;43.70;;;;;;4985180;28;20449;-45
2021/05/31 03:15:19;;;;;;;2.83;2.40;;;15.60;43.30;;;;;;4988627;28;20438;-46
2021/05/31 03:17:46;;;;;;;3.67;2.83;;;15.70;43.20;;;;;;4984830;28;20191;-45
2021/05/31 03:20:13;;;;;;;2.23;2.03;;;15.60;43.20;;;;;;4983786;28;20448;-45
2021/05/31 03:22:39;;;;;;;2.83;2.63;;;15.70;43.50;;;;;;4985148;28;20441;-47
2021/05/31 03:25:07;;;;;;;2.80;2.60;;;15.60;44.00;;;;;;4987933;28;20445;-48
2021/05/31 03:27:32;;;;;;;3.80;2.93;;;15.60;44.50;;;;;;4991365;28;20442;-48
2021/05/31 03:29:58;;;;;;;3.20;2.30;;;15.50;43.90;;;;;;4984626;28;21256;-45
2021/05/31 03:32:24;;;;;;;2.73;2.50;;;15.60;44.30;;;;;;4987101;28;20551;-48
2021/05/31 03:34:49;;;;;;;2.47;2.27;;;15.50;44.10;;;;;;4983625;28;20690;-48
2021/05/31 03:37:15;;;;;;;2.57;2.37;;;15.40;44.30;;;;;;4983288;28;20564;-45
2021/05/31 03:39:40;;;;;;;2.47;2.07;;;15.10;45.10;;;;;;4985296;28;20230;-46
2021/05/31 03:42:07;;;;;;;2.93;2.30;;;15.20;45.40;;;;;;4987786;28;20669;-49
2021/05/31 03:44:34;;;;;;;3.00;2.30;;;15.50;45.00;;;;;;4985775;28;20245;-45
2021/05/31 03:46:59;;;;;;;2.90;2.20;;;15.80;44.80;;;;;;4985267;28;20446;-46
2021/05/31 03:49:25;;;;;;;3.30;2.20;;;16.00;44.20;;;;;;4983197;28;20965;-49
2021/05/31 03:51:51;;;;;;;6.33;2.70;;;16.00;43.90;;;;;;4981194;28;20229;-46
2021/05/31 03:54:16;;;;;;;3.80;3.50;;;16.00;43.80;;;;;;4990290;28;20277;-48
2021/05/31 03:56:42;;;;;;;2.40;2.17;;;15.80;44.10;;;;;;4985367;28;20198;-45
2021/05/31 03:59:08;;;;;;;4.53;2.70;;;16.00;44.20;;;;;;4985780;28;20614;-45
2021/05/31 04:01:34;;;;;;;3.10;2.50;;;16.00;43.90;;;;;;4984694;28;20721;-45
2021/05/31 04:04:00;;;;;;;2.60;2.27;;;16.10;44.20;;;;;;4988178;28;20445;-47
2021/05/31 04:11:54;;;;;;;6.33;2.80;;;16.40;43.50;;;;;;4986660;28;21136;-47
2021/05/31 04:14:20;;;;;;;6.20;2.83;;;16.50;43.60;;;;;;4990521;28;20446;-48
2021/05/31 04:16:48;;;;;;;4.03;2.93;;;16.60;43.00;;;;;;4989434;28;20285;-48
2021/05/31 04:19:15;;;;;;;3.20;2.50;;;16.70;43.10;;;;;;4981507;28;20470;-49
2021/05/31 04:21:44;;;;;;;4.30;2.10;;;16.90;42.90;;;;;;4987194;28;20441;-48
2021/05/31 04:24:10;;;;;;;3.50;2.40;;;16.80;42.20;;;;;;4986053;28;21042;-46
2021/05/31 04:26:37;;;;;;;3.20;2.27;;;16.80;42.90;;;;;;4982646;28;21247;-48
2021/05/31 04:29:05;;;;;;;2.93;2.57;;;16.80;42.60;;;;;;4984419;28;21194;-49
2021/05/31 04:31:32;;;;;;;2.53;2.20;;;16.80;42.50;;;;;;4984274;28;20492;-48
2021/05/31 04:33:58;;;;;;;3.00;2.53;;;16.80;42.70;;;;;;4986482;28;20461;-48
2021/05/31 04:36:23;;;;;;;3.63;2.50;;;17.10;43.30;;;;;;4990308;28;20949;-46
2021/05/31 04:38:49;;;;;;;3.73;2.50;;;17.30;42.10;;;;;;4988385;28;20238;-49
2021/05/31 04:41:15;;;;;;;3.10;2.80;;;17.20;41.50;;;;;;4981435;28;20199;-47
2021/05/31 04:43:40;;;;;;;3.10;2.80;;;17.50;41.70;;;;;;4982562;28;20207;-48
2021/05/31 04:46:06;;;;;;;3.27;3.03;;;17.50;41.00;;;;;;4989328;28;20191;-47
2021/05/31 04:48:32;;;;;;;2.83;2.63;;;16.90;41.80;;;;;;4988542;28;20198;-49
2021/05/31 04:50:59;;;;;;;2.80;2.60;;;16.80;42.70;;;;;;4983536;28;20686;-49
2021/05/31 04:53:25;;;;;;;3.10;2.90;;;17.20;43.20;;;;;;4976510;28;20206;-47
2021/05/31 04:55:53;;;;;;;2.70;2.50;;;17.50;42.30;;;;;;4984159;28;20803;-48
2021/05/31 04:58:20;;;;;;;6.13;2.60;;;17.70;41.90;;;;;;4985326;28;20453;-46
2021/05/31 05:00:45;;;;;;;2.87;2.60;;;17.90;41.60;;;;;;4983325;28;20441;-49
2021/05/31 05:03:11;;;;;;;7.93;2.60;;;18.20;41.00;;;;;;4989663;28;20471;-49
2021/05/31 05:05:37;;;;;;;6.13;3.07;;;18.30;40.80;;;;;;4986936;28;20194;-48
2021/05/31 05:08:03;;;;;;;3.50;2.70;;;18.40;40.70;;;;;;4985574;28;20685;-48
2021/05/31 05:10:29;;;;;;;5.17;2.53;;;18.40;40.20;;;;;;4982219;28;20338;-45
2021/05/31 05:12:54;;;;;;;4.37;2.80;;;18.50;39.80;;;;;;4982105;28;20445;-49
2021/05/31 05:15:23;;;;;;;5.47;3.57;;;18.40;40.40;;;;;;4986222;28;20669;-47
2021/05/31 05:17:49;;;;;;;4.07;2.90;;;18.40;40.10;;;;;;4987147;28;20573;-46
2021/05/31 05:20:17;;;;;;;7.03;3.30;;;18.50;40.10;;;;;;4987145;28;20449;-47
2021/05/31 05:22:44;;;;;;;3.30;3.00;;;18.50;39.80;;;;;;4984928;28;20568;-47
2021/05/31 05:25:11;;;;;;;3.67;2.70;;;18.40;39.90;;;;;;4989431;28;20445;-46
2021/05/31 05:27:37;;;;;;;6.77;3.07;;;18.40;40.20;;;;;;4981964;28;20472;-48
2021/05/31 05:30:05;;;;;;;3.50;3.10;;;18.30;40.10;;;;;;4984787;28;20486;-47
2021/05/31 05:32:32;;;;;;;4.60;3.00;;;18.30;40.30;;;;;;4983715;28;20957;-45
2021/05/31 05:35:15;;;;;;;4.60;3.03;;;18.30;40.60;;;;;;4987700;28;20814;-47
2021/05/31 05:37:55;;;;;;;2.77;2.57;;;18.40;40.70;;;;;;4989024;28;20446;-50
2021/05/31 05:43:02;;;;;;;3.33;3.10;;;18.60;41.20;;;;;;4989265;28;20535;-48
2021/05/31 05:48:11;;;;;;;3.37;3.07;;;18.80;41.20;;;;;;4989502;28;20433;-50
2021/05/31 05:50:37;;;;;;;2.77;2.57;;;18.80;40.90;;;;;;4988373;28;20503;-48
2021/05/31 05:53:03;;;;;;;5.10;2.90;;;18.90;40.50;;;;;;4985123;28;20261;-47
2021/05/31 05:55:28;;;;;;;3.03;2.70;;;18.90;40.40;;;;;;4989394;28;20205;-46
2021/05/31 05:57:55;;;;;;;4.80;2.97;;;18.90;40.20;;;;;;5005274;28;20195;-47
2021/05/31 06:00:24;;;;;;;2.90;2.70;;;18.70;40.70;;;;;;4989814;28;20907;-47
2021/05/31 06:02:50;;;;;;;3.03;2.67;;;18.80;41.10;;;;;;4989745;28;20584;-47
2021/05/31 06:05:16;;;;;;;3.63;2.73;;;18.90;40.60;;;;;;4990227;28;20446;-45
2021/05/31 06:07:42;;;;;;;2.83;2.63;;;19.00;40.50;;;;;;4990800;28;20449;-50
2021/05/31 06:10:08;;;;;;;3.70;3.40;;;19.30;40.50;;;;;;4990274;28;20512;-50
2021/05/31 06:12:34;;;;;;;4.57;2.87;;;19.30;39.90;;;;;;4990264;28;20524;-45
2021/05/31 06:15:01;;;;;;;3.87;3.37;;;19.40;40.10;;;;;;4990284;28;20935;-47
2021/05/31 06:17:27;;;;;;;4.73;3.23;;;19.40;39.40;;;;;;4989241;28;20437;-45
2021/05/31 06:20:00;;;;;;;3.03;2.60;;;19.60;39.40;;;;;;4988603;28;20858;-48
2021/05/31 06:22:26;;;;;;;3.10;2.80;;;19.70;39.20;;;;;;4987514;28;20199;-46
2021/05/31 06:24:51;;;;;;;3.30;2.83;;;19.80;38.80;;;;;;4988075;28;20484;-45
2021/05/31 06:27:17;;;;;;;4.47;3.20;;;19.70;39.00;;;;;;4988218;28;20898;-49
2021/05/31 06:29:43;;;;;;;3.30;2.67;;;19.80;39.60;;;;;;4990573;28;20650;-47
2021/05/31 06:32:08;;;;;;;2.80;2.60;;;20.10;39.90;;;;;;4994416;28;20282;-45
2021/05/31 06:34:34;;;;;;;9.20;3.10;;;20.40;39.10;;;;;;4993339;28;20329;-45
2021/05/31 06:36:59;;;;;;;4.07;3.07;;;20.70;38.20;;;;;;4993431;28;20206;-45
2021/05/31 06:39:25;;;;;;;2.10;2.00;;;20.80;37.80;;;;;;4992009;28;20765;-50
2021/05/31 06:41:51;;;;;;;2.93;2.63;;;21.00;37.90;;;;;;4990297;28;20249;-50
2021/05/31 06:44:16;;;;;;;3.80;3.00;;;21.10;38.20;;;;;;4991756;28;20266;-49
2021/05/31 06:46:43;;;;;;;2.90;2.70;;;21.30;36.80;;;;;;4993343;28;20193;-49
2021/05/31 06:49:09;;;;;;;3.23;2.93;;;21.50;36.90;;;;;;4993296;28;20205;-49
2021/05/31 06:51:34;;;;;;;2.77;2.50;;;21.60;36.80;;;;;;4995178;28;20485;-46
2021/05/31 06:54:00;;;;;;;3.30;2.77;;;21.80;36.90;;;;;;4990683;28;20194;-45
2021/05/31 06:56:26;;;;;;;3.20;2.53;;;21.90;36.70;;;;;;4992966;28;20654;-48
2021/05/31 06:58:51;;;;;;;2.97;2.57;;;22.10;35.80;;;;;;4993280;28;20253;-45
2021/05/31 07:01:17;;;;;;;2.73;2.33;;;22.10;35.90;;;;;;4994098;28;20669;-46
2021/05/31 07:03:43;;;;;;;2.90;2.60;;;22.20;35.70;;;;;;4993480;28;20233;-46
2021/05/31 07:06:09;;;;;;;3.40;2.67;;;22.30;36.00;;;;;;4996558;28;20237;-45
2021/05/31 07:08:35;;;;;;;4.40;2.70;;;22.40;36.10;;;;;;4993041;28;20191;-46
2021/05/31 07:11:23;;;;;;;2.80;2.47;;;22.50;35.60;;;;;;4993324;28;20489;-45
2021/05/31 07:13:47;;;;;;;3.13;2.93;;;22.70;35.50;;;;;;4991087;28;20206;-46
2021/05/31 07:16:14;;;;;;;2.47;2.27;;;22.70;34.80;;;;;;4993624;28;21001;-48
2021/05/31 07:18:39;;;;;;;4.23;2.63;;;22.80;35.10;;;;;;4993070;28;20198;-46
2021/05/31 07:21:05;;;;;;;6.60;2.10;;;22.90;34.90;;;;;;4992768;28;20449;-46
2021/05/31 07:23:31;;;;;;;4.63;2.20;;;23.20;34.50;;;;;;4988833;28;20553;-48
2021/05/31 07:25:57;;;;;;;2.90;2.60;;;23.40;34.60;;;;;;4991629;28;20273;-46
2021/05/31 07:28:23;;;;;;;2.13;1.93;;;23.60;32.10;;;;;;4992281;28;20198;-46
2021/05/31 07:30:48;;;;;;;3.20;2.90;;;23.30;31.60;;;;;;4991699;28;20658;-46
2021/05/31 07:33:14;;;;;;;2.53;2.20;;;23.10;32.40;;;;;;4990716;28;20464;-45
2021/05/31 07:35:41;;;;;;;2.40;2.20;;;23.20;31.80;;;;;;4992289;28;20355;-46
2021/05/31 07:38:07;;;;;;;4.77;2.20;;;23.30;30.70;;;;;;4992668;28;20226;-45
2021/05/31 07:40:33;;;;;;;3.07;2.23;;;23.60;31.60;;;;;;4985309;28;20493;-49
2021/05/31 07:42:59;;;;;;;2.50;1.70;;;23.40;30.00;;;;;;4991228;28;20449;-46
2021/05/31 07:45:25;;;;;;;3.53;1.93;;;23.20;31.00;;;;;;4991086;28;20449;-45
2021/05/31 07:47:51;;;;;;;2.10;2.00;;;23.10;30.30;;;;;;4993171;28;20205;-49
2021/05/31 07:50:18;;;;;;;2.40;2.20;;;23.60;31.70;;;;;;4988996;28;20474;-48
2021/05/31 07:52:43;;;;;;;7.30;2.43;;;23.60;30.80;;;;;;4988991;28;20209;-49
2021/05/31 07:55:12;;;;;;;2.40;2.20;;;23.00;30.00;;;;;;4983572;28;20454;-48
2021/05/31 07:57:39;;;;;;;6.07;2.37;;;23.00;31.30;;;;;;4990217;28;20187;-47
2021/05/31 08:00:09;;;;;;;5.10;2.30;;;22.40;31.30;;;;;;4991849;28;20441;-45
2021/05/31 08:02:36;;;;;;;2.73;2.10;;;22.50;31.50;;;;;;4992431;28;20442;-45
2021/05/31 08:05:02;;;;;;;3.10;2.80;;;22.50;31.50;;;;;;4991846;28;20454;-50
2021/05/31 08:07:28;;;;;;;2.47;2.27;;;22.70;30.30;;;;;;4989006;28;20466;-46
2021/05/31 08:09:56;;;;;;;2.13;2.03;;;22.90;30.00;;;;;;4998111;28;20536;-49
2021/05/31 08:12:22;;;;;;;2.60;2.40;;;23.20;29.90;;;;;;4989183;28;20217;-46
2021/05/31 08:14:47;;;;;;;4.63;1.83;;;23.50;29.40;;;;;;4988508;28;20446;-45
2021/05/31 08:17:13;;;;;;;2.10;2.00;;;23.70;29.30;;;;;;4989658;28;20195;-47
2021/05/31 08:19:39;;;;;;;2.10;2.00;;;23.80;29.80;;;;;;4991031;28;22151;-49
2021/05/31 08:22:08;;;;;;;2.80;2.03;;;24.00;29.90;;;;;;4989565;28;20579;-47
2021/05/31 08:24:35;;;;;;;2.73;2.13;;;24.10;30.10;;;;;;4982999;28;20206;-46
2021/05/31 08:27:04;;;;;;;2.20;2.10;;;24.00;29.30;;;;;;4985555;28;20528;-45
2021/05/31 08:29:29;;;;;;;3.00;2.80;;;23.80;29.10;;;;;;4991757;28;20437;-46
2021/05/31 08:31:56;;;;;;;2.33;2.13;;;24.00;29.20;;;;;;4982707;28;20895;-49
2021/05/31 08:34:23;;;;;;;2.43;2.23;;;24.00;29.50;;;;;;4990546;28;20281;-45
2021/05/31 08:36:48;;;;;;;3.00;2.10;;;24.10;29.30;;;;;;4987894;28;20934;-48
2021/05/31 08:39:14;;;;;;;2.30;2.10;;;24.30;28.80;;;;;;4987508;28;20548;-45
2021/05/31 08:41:40;;;;;;;2.10;2.00;;;24.50;28.30;;;;;;4988838;28;20198;-47
2021/05/31 08:44:06;;;;;;;2.43;2.13;;;24.60;28.30;;;;;;4990252;28;20619;-45
2021/05/31 08:46:34;;;;;;;2.60;2.43;;;24.40;28.40;;;;;;4992564;28;20433;-46
2021/05/31 08:49:00;;;;;;;5.23;2.40;;;24.70;28.50;;;;;;4986743;28;20602;-46
2021/05/31 08:51:26;;;;;;;2.60;2.40;;;24.70;28.30;;;;;;4985490;28;20597;-47
2021/05/31 08:53:52;;;;;;;4.03;2.80;;;24.40;28.50;;;;;;4989600;28;20658;-47
2021/05/31 08:56:17;;;;;;;4.50;2.80;;;24.10;28.80;;;;;;4989582;28;20189;-45
2021/05/31 08:58:47;;;;;;;2.50;2.30;;;24.10;29.20;;;;;;4991506;28;20191;-46
2021/05/31 09:01:13;;;;;;;2.33;2.17;;;24.10;29.80;;;;;;4990749;28;20201;-48
2021/05/31 09:03:39;;;;;;;2.57;2.37;;;24.40;28.70;;;;;;4988647;28;20434;-44
2021/05/31 09:06:05;;;;;;;2.23;2.03;;;24.80;28.70;;;;;;4991743;28;20219;-46
2021/05/31 09:08:31;;;;;;;2.87;2.50;;;24.80;28.60;;;;;;4995659;28;20198;-46
2021/05/31 09:11:02;;;;;;;3.30;2.30;;;24.80;27.90;;;;;;4996816;28;20521;-47
2021/05/31 09:13:43;;;;;;;2.07;1.97;;;24.80;27.80;;;;;;4989408;28;20446;-44
2021/05/31 09:16:16;;;;;;;2.70;2.10;;;25.10;28.60;;;;;;4989900;28;20438;-47
2021/05/31 09:18:46;;;;;;;2.97;2.20;;;25.20;28.10;;;;;;4990879;28;20441;-48
2021/05/31 09:21:26;;;;;;;2.37;2.27;;;25.30;27.90;;;;;;4986607;28;20445;-43
2021/05/31 09:23:54;;;;;;;2.40;2.00;;;25.40;27.40;;;;;;4977671;28;20457;-43
2021/05/31 09:26:20;;;;;;;2.27;2.17;;;25.70;27.20;;;;;;4982988;28;20802;-44
2021/05/31 09:28:52;;;;;;;2.87;2.50;;;25.70;27.00;;;;;;4989509;28;20565;-46
2021/05/31 09:31:18;;;;;;;3.03;2.33;;;25.90;27.70;;;;;;4986915;28;20320;-47
2021/05/31 09:33:55;;;;;;;3.27;2.10;;;26.30;28.20;;;;;;4990187;28;20434;-47
2021/05/31 09:36:20;;;;;;;2.40;2.20;;;26.60;27.30;;;;;;4988225;28;20433;-47
2021/05/31 09:38:50;;;;;;;2.80;2.60;;;26.90;26.50;;;;;;4989082;28;21023;-44
2021/05/31 09:41:34;;;;;;;5.60;2.30;;;27.10;26.90;;;;;;4985911;28;20204;-45
2021/05/31 09:44:05;;;;;;;2.23;2.03;;;26.50;26.70;;;;;;4987280;28;20446;-44
2021/05/31 09:46:46;;;;;;;2.37;2.17;;;26.20;27.40;;;;;;4987415;28;20446;-44
2021/05/31 09:49:20;;;;;;;3.20;2.50;;;26.40;27.70;;;;;;4989415;28;20836;-43
2021/05/31 09:52:00;;;;;;;3.13;2.40;;;26.90;27.50;;;;;;4990035;28;20498;-48
2021/05/31 09:54:26;;;;;;;2.50;2.30;;;27.40;26.80;;;;;;4989918;28;20445;-46
2021/05/31 09:56:51;;;;;;;2.40;2.23;;;27.60;27.40;;;;;;4991172;28;20445;-46
2021/05/31 09:59:24;;;;;;;2.30;2.10;;;27.70;25.80;;;;;;4988263;28;21127;-48
2021/05/31 10:01:55;;;;;;;2.60;2.40;;;27.40;26.20;;;;;;4988575;28;20206;-46
2021/05/31 10:07:21;;;;;;;3.47;2.53;;;27.50;25.50;;;;;;4994505;28;21059;-45
2021/05/31 10:09:49;;;;;;;3.40;3.10;;;27.70;25.80;;;;;;4989121;28;20850;-48
2021/05/31 10:12:16;;;;;;;6.23;3.53;;;26.90;25.90;;;;;;4994959;28;20442;-47
2021/05/31 10:14:44;;;;;;;5.03;3.90;;;26.80;26.70;;;;;;4994026;28;20491;-48
2021/05/31 10:17:13;;;;;;;7.60;4.70;;;27.00;26.90;;;;;;4994877;28;20438;-47
2021/05/31 10:19:41;;;;;;;22.07;6.20;;;27.10;27.20;;;;;;4995305;28;20434;-47
2021/05/31 10:22:06;;;;;;;5.33;3.57;;;26.90;27.00;;;;;;4994532;28;20523;-46
2021/05/31 10:24:34;;;;;;;3.70;3.37;;;27.10;26.50;;;;;;4994275;28;20493;-49
2021/05/31 10:27:01;;;;;;;6.50;4.70;;;27.60;27.00;;;;;;5003243;28;20504;-45
2021/05/31 10:29:26;;;;;;;7.27;4.43;;;28.10;27.60;;;;;;4986259;28;20441;-47
2021/05/31 10:31:52;;;;;;;9.23;3.80;;;28.60;26.40;;;;;;4992416;28;20993;-48
2021/05/31 10:34:22;;;;;;;6.07;3.60;;;28.80;26.20;;;;;;4991751;28;20199;-46
2021/05/31 10:36:55;;;;;;;5.53;3.60;;;28.40;26.00;;;;;;4986636;28;20198;-43
2021/05/31 10:39:26;;;;;;;4.10;2.77;;;28.80;25.60;;;;;;4986720;28;20473;-44
2021/05/31 10:42:06;;;;;;;3.20;2.70;;;28.90;24.60;;;;;;4991958;28;20449;-45
2021/05/31 10:44:33;;;;;;;4.30;3.50;;;29.10;24.10;;;;;;4992965;28;20433;-44
2021/05/31 10:47:07;;;;;;;3.47;2.40;;;29.00;24.70;;;;;;4992523;28;20441;-46
2021/05/31 10:49:33;;;;;;;2.67;2.30;;;29.40;24.80;;;;;;4991529;28;20430;-47
2021/05/31 10:51:58;;;;;;;2.70;2.50;;;29.50;23.90;;;;;;4993710;28;21028;-44
2021/05/31 10:54:25;;;;;;;2.40;2.20;;;29.10;24.80;;;;;;4993642;28;20654;-44
2021/05/31 10:56:53;;;;;;;3.73;2.60;;;29.40;24.80;;;;;;4992507;28;20201;-45
2021/05/31 10:59:22;;;;;;;2.97;2.10;;;29.40;24.50;;;;;;4993153;28;20446;-44
2021/05/31 11:01:48;;;;;;;3.93;2.30;;;29.80;23.70;;;;;;4994135;28;20450;-43
2021/05/31 11:04:19;;;;;;;2.40;2.30;;;29.90;24.10;;;;;;4993313;28;20437;-46
2021/05/31 11:06:46;;;;;;;2.30;2.20;;;30.10;24.00;;;;;;4994795;28;20202;-45
2021/05/31 11:09:13;;;;;;;3.80;2.23;;;30.30;23.70;;;;;;4993408;28;20445;-47
2021/05/31 11:11:40;;;;;;;2.40;2.20;;;30.00;23.00;;;;;;4993464;28;20481;-44
2021/05/31 11:14:07;;;;;;;2.40;2.10;;;30.00;23.60;;;;;;4992725;28;21021;-45
2021/05/31 11:16:35;;;;;;;2.50;2.00;;;30.20;23.70;;;;;;4993718;28;20429;-43
2021/05/31 11:19:05;;;;;;;2.50;2.30;;;30.50;24.90;;;;;;4993068;28;20523;-47
2021/05/31 11:21:34;;;;;;;2.73;2.40;;;30.30;23.00;;;;;;4993142;28;20973;-43
2021/05/31 11:24:07;;;;;;;3.37;2.30;;;30.30;22.90;;;;;;4992237;28;20434;-43
2021/05/31 11:26:38;;;;;;;2.40;2.20;;;30.30;22.80;;;;;;4993358;28;20525;-44
2021/05/31 11:29:06;;;;;;;2.10;1.90;;;30.40;22.60;;;;;;4993172;28;20437;-44
2021/05/31 11:31:33;;;;;;;2.40;2.20;;;30.60;24.50;;;;;;4992677;28;20497;-44
2021/05/31 11:34:01;;;;;;;3.00;2.57;;;30.60;23.90;;;;;;4992689;28;20529;-45
2021/05/31 11:36:36;;;;;;;2.47;2.27;;;30.60;24.10;;;;;;4993403;28;20434;-46
2021/05/31 11:39:12;;;;;;;3.13;2.30;;;30.50;23.50;;;;;;4993430;28;20511;-45
2021/05/31 11:41:49;;;;;;;2.47;2.27;;;29.20;23.40;;;;;;4986764;28;20512;-46
2021/05/31 11:44:27;;;;;;;2.30;2.10;;;28.00;24.40;;;;;;4993060;28;20844;-47
2021/05/31 11:47:03;;;;;;;2.17;1.97;;;28.00;24.30;;;;;;4993876;28;20445;-47
2021/05/31 11:49:35;;;;;;;2.27;2.07;;;28.10;25.50;;;;;;4992944;28;20445;-47
2021/05/31 11:52:04;;;;;;;2.07;1.87;;;28.70;25.90;;;;;;4981079;28;20493;-47
2021/05/31 11:54:33;;;;;;;2.23;2.13;;;29.50;25.30;;;;;;4996127;28;20441;-46
2021/05/31 11:57:00;;;;;;;2.33;2.10;;;30.10;24.10;;;;;;4993714;28;20430;-48
2021/05/31 11:59:32;;;;;;;2.33;2.13;;;30.50;23.30;;;;;;4992041;28;20433;-47
2021/05/31 12:01:57;;;;;;;3.57;2.30;;;30.40;22.30;;;;;;4986691;28;20440;-45
2021/05/31 12:04:27;;;;;;;2.50;2.30;;;29.90;23.20;;;;;;4991318;28;20790;-44
2021/05/31 12:07:07;;;;;;;2.20;2.10;;;29.60;23.20;;;;;;4990501;28;20203;-48
2021/05/31 12:09:35;;;;;;;2.10;2.00;;;29.60;22.70;;;;;;4990918;28;20447;-49
2021/05/31 12:12:01;;;;;;;2.20;2.00;;;29.80;23.60;;;;;;4993345;28;20564;-45
2021/05/31 12:14:29;;;;;;;2.00;1.90;;;30.10;22.60;;;;;;4988005;28;20431;-46
2021/05/31 12:16:59;;;;;;;3.13;2.17;;;30.10;22.80;;;;;;4987044;28;20191;-47
2021/05/31 12:19:26;;;;;;;4.37;2.63;;;30.40;22.70;;;;;;4988724;28;20521;-47
2021/05/31 12:21:57;;;;;;;2.50;2.30;;;30.10;21.70;;;;;;4991216;28;21154;-44
2021/05/31 12:24:25;;;;;;;2.10;2.00;;;29.70;22.80;;;;;;4990462;28;20437;-47
2021/05/31 12:26:51;;;;;;;2.77;2.57;;;29.90;22.90;;;;;;4990465;28;20449;-47
2021/05/31 12:29:17;;;;;;;2.10;2.00;;;30.10;23.00;;;;;;4989668;28;20453;-46
2021/05/31 12:31:47;;;;;;;2.33;2.13;;;30.50;23.30;;;;;;4990830;28;20489;-44
2021/05/31 12:34:25;;;;;;;4.67;2.90;;;30.70;22.50;;;;;;4986914;28;20298;-46
2021/05/31 12:36:53;;;;;;;2.50;2.30;;;29.90;22.10;;;;;;4986591;28;20454;-49
2021/05/31 12:39:19;;;;;;;5.03;2.40;;;29.50;22.70;;;;;;4989854;28;20482;-47
2021/05/31 12:41:45;;;;;;;2.40;2.17;;;29.20;23.00;;;;;;4992148;28;20524;-48
2021/05/31 12:44:11;;;;;;;3.00;2.10;;;29.20;22.90;;;;;;4991629;28;20798;-46
2021/05/31 12:46:42;;;;;;;2.37;2.27;;;29.40;24.20;;;;;;4990120;28;20445;-44
2021/05/31 12:49:08;;;;;;;2.33;2.13;;;29.60;23.60;;;;;;4992765;28;20198;-45
2021/05/31 12:51:37;;;;;;;2.00;1.90;;;29.60;23.30;;;;;;4990059;28;20497;-47
2021/05/31 12:54:04;;;;;;;2.40;2.23;;;28.90;23.70;;;;;;4991554;28;20442;-45
2021/05/31 12:56:36;;;;;;;3.33;2.33;;;28.70;24.00;;;;;;4991235;28;20777;-45
2021/05/31 12:59:09;;;;;;;3.83;3.17;;;28.60;24.60;;;;;;4992789;28;20437;-48
2021/05/31 13:01:35;;;;;;;2.20;2.10;;;28.80;24.30;;;;;;4991403;28;20434;-49
2021/05/31 13:04:01;;;;;;;2.30;2.10;;;28.70;24.50;;;;;;4991740;28;20441;-47
2021/05/31 13:06:42;;;;;;;5.77;2.20;;;29.00;23.20;;;;;;4992597;28;20426;-48